MDW weather

Chicago Midway International Airport
Chicago, Illinois, United States

Public forecast

Using degrees Fahrenheit for public forecast. Weather courtesy of forecast.io.

METAR (pilot weather report)

Retrieved 2017/10/19 10:53 UTC (60 minutes ago):

KMDW 191053Z 25007KT 10SM BKN300 12/09 A3009 RMK AO2 SLP186 T01220089 $

TAF (pilot weather forecast)

Retrieved 2017/10/19 06:22 UTC (6 hours ago):

TAF KMDW 190520Z 1906/2006 22010KT P6SM FEW250 FM191300 29005KT P6SM FEW250 FM192000 13005KT P6SM SCT250